createdAt,value
2024-02-13T00:01:40.910Z,-25.89
2024-02-13T00:04:11.381Z,-25.76
2024-02-13T00:06:40.208Z,-25.74
2024-02-13T00:09:09.099Z,-25.69
2024-02-13T00:11:38.064Z,-25.75
2024-02-13T00:14:09.622Z,-25.72
2024-02-13T00:16:39.897Z,-25.70
2024-02-13T00:19:13.420Z,-25.74
2024-02-13T00:21:45.186Z,-25.67
2024-02-13T00:24:18.201Z,-25.64
2024-02-13T00:26:48.556Z,-25.59
2024-02-13T00:29:17.640Z,-25.59
2024-02-13T00:31:47.221Z,-25.59
2024-02-13T00:34:21.460Z,-25.77
2024-02-13T00:36:54.442Z,-25.49
2024-02-13T00:39:23.171Z,-25.49
2024-02-13T00:41:53.160Z,-25.47
2024-02-13T00:44:21.756Z,-25.53
2024-02-13T00:46:52.024Z,-25.49
2024-02-13T00:49:23.691Z,-25.41
2024-02-13T00:51:52.380Z,-25.24
2024-02-13T00:54:21.484Z,-25.20
2024-02-13T00:56:55.084Z,-25.08
2024-02-13T00:59:25.360Z,-25.12
2024-02-13T01:01:54.213Z,-24.99
2024-02-13T01:04:24.846Z,-25.05
2024-02-13T01:06:53.541Z,-24.90
2024-02-13T01:09:22.488Z,-24.95
2024-02-13T01:11:51.430Z,-24.86
2024-02-13T01:14:20.893Z,-24.88
2024-02-13T01:16:49.467Z,-24.86
2024-02-13T01:19:19.670Z,-24.81
2024-02-13T01:21:49.696Z,-24.67
2024-02-13T01:24:19.122Z,-24.57
2024-02-13T01:26:47.968Z,-24.52
2024-02-13T01:29:16.923Z,-24.49
2024-02-13T01:31:48.184Z,-24.58
2024-02-13T01:34:17.124Z,-24.59
2024-02-13T01:36:45.885Z,-24.58
2024-02-13T01:39:15.151Z,-24.50
2024-02-13T01:41:44.586Z,-24.60
2024-02-13T01:44:13.352Z,-24.57
2024-02-13T01:46:42.444Z,-24.60
2024-02-13T01:49:12.778Z,-24.63
2024-02-13T01:51:42.967Z,-24.54
2024-02-13T01:54:14.257Z,-24.59
2024-02-13T01:56:43.808Z,-24.60
2024-02-13T01:59:16.272Z,-24.63
2024-02-13T02:01:45.726Z,-24.61
2024-02-13T02:04:14.971Z,-24.49
2024-02-13T02:06:43.653Z,-24.55
2024-02-13T02:09:12.444Z,-24.46
2024-02-13T02:11:41.395Z,-24.55
2024-02-13T02:14:10.879Z,-24.57
2024-02-13T02:16:40.720Z,-24.52
2024-02-13T02:19:09.725Z,-24.46
2024-02-13T02:21:38.480Z,-24.53
2024-02-13T02:24:08.438Z,-24.43
2024-02-13T02:26:37.530Z,-24.43
2024-02-13T02:29:07.513Z,-24.40
2024-02-13T02:31:39.269Z,-24.42
2024-02-13T02:34:10.725Z,-24.68
2024-02-13T02:36:39.325Z,-24.30
2024-02-13T02:39:08.273Z,-24.19
2024-02-13T02:41:36.852Z,-24.15
2024-02-13T02:44:05.624Z,-24.32
2024-02-13T02:46:34.758Z,-24.12
2024-02-13T02:49:05.501Z,-24.01
2024-02-13T02:51:34.915Z,-23.96
2024-02-13T02:54:05.648Z,-23.83
2024-02-13T02:56:34.969Z,-23.79
2024-02-13T02:59:06.066Z,-23.68
2024-02-13T03:01:36.392Z,-23.63
2024-02-13T03:04:09.110Z,-23.42
2024-02-13T03:06:40.787Z,-23.35
2024-02-13T03:09:12.265Z,-23.28
2024-02-13T03:11:43.497Z,-23.10
2024-02-13T03:14:12.002Z,-22.98
2024-02-13T03:16:42.581Z,-22.90
2024-02-13T03:19:14.579Z,-22.92
2024-02-13T03:21:45.203Z,-22.73
2024-02-13T03:24:14.466Z,-22.73
2024-02-13T03:26:57.084Z,-22.67
2024-02-13T03:29:26.488Z,-22.49
2024-02-13T03:31:58.191Z,-22.37
2024-02-13T03:34:27.109Z,-22.25
2024-02-13T03:36:55.659Z,-22.04
2024-02-13T03:39:25.683Z,-21.96
2024-02-13T03:41:57.664Z,-21.80
2024-02-13T03:44:28.710Z,-21.61
2024-02-13T03:46:57.867Z,-21.39
2024-02-13T03:49:26.522Z,-21.23
2024-02-13T03:51:55.685Z,-21.07
2024-02-13T03:54:25.192Z,-20.94
2024-02-13T03:56:53.862Z,-20.81
2024-02-13T03:59:34.544Z,-20.72
2024-02-13T04:02:03.920Z,-20.91
2024-02-13T04:04:34.694Z,-20.61
2024-02-13T04:07:06.617Z,-20.55
2024-02-13T04:09:36.410Z,-20.56
2024-02-13T04:12:07.468Z,-20.52
2024-02-13T04:14:36.663Z,-20.41
2024-02-13T04:17:05.876Z,-20.31
2024-02-13T04:19:41.493Z,-20.20
2024-02-13T04:22:11.543Z,-20.12
2024-02-13T04:24:40.434Z,-20.25
2024-02-13T04:27:10.587Z,-19.86
2024-02-13T04:29:44.661Z,-19.73
2024-02-13T04:32:15.527Z,-19.77
2024-02-13T04:34:44.362Z,-19.64
2024-02-13T04:37:14.454Z,-19.60
2024-02-13T04:39:43.494Z,-19.46
2024-02-13T04:42:13.876Z,-19.60
2024-02-13T04:44:42.985Z,-19.26
2024-02-13T04:47:12.993Z,-19.28
2024-02-13T04:49:41.917Z,-19.16
2024-02-13T04:52:13.118Z,-19.09
2024-02-13T04:54:43.573Z,-18.93
2024-02-13T04:57:13.687Z,-18.88
2024-02-13T04:59:49.911Z,-18.87
2024-02-13T05:02:21.159Z,-19.00
2024-02-13T05:05:08.732Z,-18.71
2024-02-13T05:07:38.260Z,-18.67
2024-02-13T05:10:07.677Z,-18.55
2024-02-13T05:12:36.671Z,-18.56
2024-02-13T05:15:07.311Z,-18.40
2024-02-13T05:17:38.286Z,-18.26
2024-02-13T05:20:13.210Z,-18.16
2024-02-13T05:22:55.406Z,-17.90
2024-02-13T05:25:24.201Z,-17.66
2024-02-13T05:27:53.382Z,-17.44
2024-02-13T05:30:24.105Z,-17.23
2024-02-13T05:32:53.597Z,-17.00
2024-02-13T05:35:22.535Z,-16.76
2024-02-13T05:37:53.657Z,-16.50
2024-02-13T05:40:22.502Z,-16.22
2024-02-13T05:42:51.552Z,-16.07
2024-02-13T05:45:21.563Z,-15.90
2024-02-13T05:47:50.471Z,-15.70
2024-02-13T05:50:21.427Z,-15.37
2024-02-13T05:52:51.846Z,-15.24
2024-02-13T05:55:22.617Z,-15.21
2024-02-13T05:57:51.616Z,-15.14
2024-02-13T06:00:20.680Z,-15.03
2024-02-13T06:02:49.508Z,-15.18
2024-02-13T06:05:18.402Z,-15.22
2024-02-13T06:07:47.292Z,-15.06
2024-02-13T06:10:18.056Z,-14.95
2024-02-13T06:12:47.665Z,-14.91
2024-02-13T06:15:16.971Z,-14.89
2024-02-13T06:17:45.668Z,-14.86
2024-02-13T06:20:14.659Z,-14.84
2024-02-13T06:22:43.560Z,-14.80
2024-02-13T06:25:14.161Z,-14.75
2024-02-13T06:27:43.072Z,-14.79
2024-02-13T06:30:12.439Z,-14.69
2024-02-13T06:32:44.700Z,-14.80
2024-02-13T06:35:13.981Z,-14.61
2024-02-13T06:37:42.603Z,-14.64
2024-02-13T06:40:13.425Z,-14.60
2024-02-13T06:42:42.151Z,-14.80
2024-02-13T06:45:12.198Z,-14.53
2024-02-13T06:47:41.051Z,-14.54
2024-02-13T06:50:14.667Z,-14.44
2024-02-13T06:52:43.814Z,-14.37
2024-02-13T06:55:13.159Z,-14.39
2024-02-13T06:57:42.687Z,-14.20
2024-02-13T07:00:13.580Z,-14.14
2024-02-13T07:02:43.447Z,-13.97
2024-02-13T07:05:13.119Z,-13.69
2024-02-13T07:07:47.633Z,-13.68
2024-02-13T07:10:18.222Z,-13.67
2024-02-13T07:12:47.942Z,-13.56
2024-02-13T07:15:17.445Z,-13.42
2024-02-13T07:17:55.803Z,-13.34
2024-02-13T07:20:28.685Z,-12.97
2024-02-13T07:22:58.243Z,-12.84
2024-02-13T07:25:28.231Z,-12.71
2024-02-13T07:27:59.659Z,-12.56
2024-02-13T07:30:28.607Z,-12.53
2024-02-13T07:32:59.339Z,-12.45
2024-02-13T07:35:28.192Z,-12.50
2024-02-13T07:38:00.524Z,-12.50
2024-02-13T07:40:29.244Z,-12.45
2024-02-13T07:42:58.470Z,-12.36
2024-02-13T07:45:29.176Z,-12.39
2024-02-13T07:47:58.394Z,-12.31
2024-02-13T07:50:29.265Z,-12.35
2024-02-13T07:52:58.095Z,-12.24
2024-02-13T07:55:28.976Z,-12.31
2024-02-13T07:58:00.412Z,-12.36
2024-02-13T08:00:31.725Z,-12.27
2024-02-13T08:03:01.595Z,-12.25
2024-02-13T08:05:35.567Z,-12.20
2024-02-13T08:08:10.911Z,-12.20
2024-02-13T08:10:43.060Z,-12.04
2024-02-13T08:13:11.884Z,-12.08
2024-02-13T08:15:41.114Z,-12.08
2024-02-13T08:18:11.101Z,-12.32
2024-02-13T08:20:41.358Z,-12.29
2024-02-13T08:23:10.103Z,-12.42
2024-02-13T08:25:38.929Z,-12.09
2024-02-13T08:28:08.166Z,-12.37
2024-02-13T08:30:36.950Z,-12.32
2024-02-13T08:33:06.458Z,-12.26
2024-02-13T08:35:35.523Z,-12.42
2024-02-13T08:38:04.515Z,-12.41
2024-02-13T08:40:33.349Z,-12.40
2024-02-13T08:43:01.997Z,-12.36
2024-02-13T08:45:30.694Z,-12.40
2024-02-13T08:48:00.002Z,-12.50
2024-02-13T08:50:29.957Z,-12.89
2024-02-13T08:53:03.552Z,-12.51
2024-02-13T08:55:32.464Z,-12.46
2024-02-13T08:58:01.729Z,-12.53
2024-02-13T09:00:30.844Z,-12.59
2024-02-13T09:03:00.936Z,-12.60
2024-02-13T09:05:31.324Z,-12.65
2024-02-13T09:08:00.781Z,-12.72
2024-02-13T09:10:30.206Z,-12.61
2024-02-13T09:13:01.164Z,-12.74
2024-02-13T09:15:31.626Z,-12.79
2024-02-13T09:18:01.506Z,-12.82
2024-02-13T09:20:31.046Z,-12.98
2024-02-13T09:23:01.366Z,-13.04
2024-02-13T09:25:31.374Z,-13.10
2024-02-13T09:28:00.811Z,-13.11
2024-02-13T09:30:29.384Z,-13.17
2024-02-13T09:32:57.944Z,-13.11
2024-02-13T09:35:27.119Z,-13.42
2024-02-13T09:37:55.884Z,-13.14
2024-02-13T09:40:30.356Z,-13.22
2024-02-13T09:42:59.050Z,-13.25
2024-02-13T09:45:28.690Z,-13.37
2024-02-13T09:48:05.927Z,-13.11
2024-02-13T09:50:43.004Z,-13.16
2024-02-13T09:53:21.840Z,-13.34
2024-02-13T09:55:56.164Z,-13.17
2024-02-13T09:58:27.866Z,-13.19
2024-02-13T10:01:01.651Z,-13.19
2024-02-13T10:03:30.968Z,-13.24
2024-02-13T10:06:00.590Z,-13.24
2024-02-13T10:08:32.985Z,-13.15
2024-02-13T10:11:02.564Z,-13.20
2024-02-13T10:13:38.029Z,-13.27
2024-02-13T10:16:19.267Z,-13.15
2024-02-13T10:18:54.012Z,-13.18
2024-02-13T10:21:31.463Z,-13.20
2024-02-13T10:24:17.227Z,-13.22
2024-02-13T10:26:47.638Z,-13.29
2024-02-13T10:29:19.377Z,-13.33
2024-02-13T10:31:48.447Z,-13.39
2024-02-13T10:34:17.299Z,-13.93
2024-02-13T10:36:49.410Z,-13.50
2024-02-13T10:39:26.567Z,-13.55
2024-02-13T10:42:00.580Z,-13.61
2024-02-13T10:44:33.652Z,-13.65
2024-02-13T10:47:05.497Z,-13.67
2024-02-13T10:49:42.495Z,-13.67
2024-02-13T10:52:14.352Z,-13.73
2024-02-13T10:54:50.181Z,-13.83
2024-02-13T10:57:18.991Z,-13.78
2024-02-13T10:59:51.353Z,-13.87
2024-02-13T11:02:21.050Z,-13.89
2024-02-13T11:04:51.052Z,-14.17
2024-02-13T11:07:21.077Z,-14.01
2024-02-13T11:09:49.933Z,-14.04
2024-02-13T11:12:20.196Z,-14.02
2024-02-13T11:14:50.474Z,-14.01
2024-02-13T11:17:23.581Z,-14.10
2024-02-13T11:20:02.910Z,-14.14
2024-02-13T11:22:40.544Z,-14.18
2024-02-13T11:25:14.376Z,-14.34
2024-02-13T11:27:46.097Z,-14.30
2024-02-13T11:30:28.200Z,-14.28
2024-02-13T11:33:04.288Z,-14.32
2024-02-13T11:35:49.157Z,-14.29
2024-02-13T11:38:23.523Z,-14.39
2024-02-13T11:40:59.330Z,-14.32
2024-02-13T11:43:29.555Z,-14.40
2024-02-13T11:45:59.930Z,-14.37
2024-02-13T11:48:32.741Z,-14.44
2024-02-13T11:51:05.043Z,-14.41
2024-02-13T11:53:35.444Z,-14.48
2024-02-13T11:56:05.767Z,-14.57
2024-02-13T11:58:38.304Z,-14.61
2024-02-13T12:01:07.276Z,-14.59
2024-02-13T12:03:37.969Z,-14.62
2024-02-13T12:06:11.134Z,-14.64
2024-02-13T12:08:43.788Z,-14.61
2024-02-13T12:11:12.795Z,-14.56
2024-02-13T12:13:42.374Z,-14.70
2024-02-13T12:16:16.644Z,-14.53
2024-02-13T12:18:46.870Z,-14.50
2024-02-13T12:21:31.585Z,-14.62
2024-02-13T12:24:04.701Z,-14.56
2024-02-13T12:26:34.047Z,-14.52
2024-02-13T12:29:17.031Z,-14.55
2024-02-13T12:31:49.586Z,-14.60
2024-02-13T12:34:19.065Z,-14.68
2024-02-13T12:36:48.119Z,-14.64
2024-02-13T12:39:27.281Z,-14.55
2024-02-13T12:41:59.210Z,-14.65
2024-02-13T12:44:40.883Z,-14.61
2024-02-13T12:47:15.234Z,-14.74
2024-02-13T12:49:48.785Z,-14.56
2024-02-13T12:52:24.314Z,-14.61
2024-02-13T12:54:54.127Z,-14.60
2024-02-13T12:57:22.848Z,-14.65
2024-02-13T12:59:56.672Z,-14.64
2024-02-13T13:02:27.756Z,-14.68
2024-02-13T13:04:56.483Z,-14.65
2024-02-13T13:07:25.508Z,-14.69
2024-02-13T13:09:54.235Z,-14.64
2024-02-13T13:12:23.059Z,-14.70
2024-02-13T13:14:52.097Z,-14.65
2024-02-13T13:17:23.459Z,-14.68
2024-02-13T13:19:52.486Z,-14.66
2024-02-13T13:22:21.542Z,-14.66
2024-02-13T13:24:51.746Z,-14.64
2024-02-13T13:27:25.462Z,-14.66
2024-02-13T13:29:56.600Z,-14.63
2024-02-13T13:32:25.714Z,-14.58
2024-02-13T13:34:54.666Z,-14.64
2024-02-13T13:37:27.271Z,-14.55
2024-02-13T13:39:56.195Z,-14.53
2024-02-13T13:42:25.027Z,-14.43
2024-02-13T13:45:06.906Z,-14.45
2024-02-13T13:47:35.915Z,-14.35
2024-02-13T13:50:05.168Z,-14.38
2024-02-13T13:52:34.007Z,-14.32
2024-02-13T13:55:02.930Z,-14.33
2024-02-13T13:57:46.732Z,-14.23
2024-02-13T14:00:22.481Z,-14.18
2024-02-13T14:02:52.763Z,-14.16
2024-02-13T14:05:21.683Z,-14.15
2024-02-13T14:07:50.571Z,-14.12
2024-02-13T14:10:19.567Z,-14.16
2024-02-13T14:12:48.531Z,-14.07
2024-02-13T14:15:18.607Z,-14.03
2024-02-13T14:17:47.766Z,-14.04
2024-02-13T14:20:16.898Z,-14.00
2024-02-13T14:22:46.301Z,-14.03
2024-02-13T14:25:15.331Z,-14.00
2024-02-13T14:27:43.952Z,-13.90
2024-02-13T14:30:16.326Z,-13.99
2024-02-13T14:32:45.970Z,-13.97
2024-02-13T14:35:18.977Z,-13.92
2024-02-13T14:37:48.204Z,-13.87
2024-02-13T14:40:29.996Z,-13.92
2024-02-13T14:42:59.590Z,-13.88
2024-02-13T14:45:28.543Z,-13.81
2024-02-13T14:47:57.479Z,-13.76
2024-02-13T14:50:27.007Z,-13.80
2024-02-13T14:52:55.865Z,-13.72
2024-02-13T14:55:26.355Z,-13.75
2024-02-13T14:58:06.124Z,-13.70
2024-02-13T15:00:43.544Z,-13.64
2024-02-13T15:03:12.478Z,-13.62
2024-02-13T15:05:41.421Z,-13.62
2024-02-13T15:08:11.305Z,-13.52
2024-02-13T15:10:40.084Z,-13.54
2024-02-13T15:13:11.346Z,-13.45
2024-02-13T15:15:40.245Z,-13.44
2024-02-13T15:18:09.435Z,-13.44
2024-02-13T15:20:38.398Z,-13.39
2024-02-13T15:23:07.211Z,-13.44
2024-02-13T15:25:38.107Z,-13.42
2024-02-13T15:28:07.003Z,-13.49
2024-02-13T15:30:39.030Z,-13.34
2024-02-13T15:33:08.527Z,-13.29
2024-02-13T15:35:51.398Z,-13.29
2024-02-13T15:38:38.830Z,-13.20
2024-02-13T15:41:25.611Z,-13.20
2024-02-13T15:44:12.873Z,-13.32
2024-02-13T15:47:00.180Z,-13.13
2024-02-13T15:49:29.194Z,-13.06
2024-02-13T15:51:58.024Z,-12.98
2024-02-13T15:54:27.323Z,-12.99
2024-02-13T15:56:58.926Z,-13.12
2024-02-13T15:59:29.843Z,-12.81
2024-02-13T16:01:59.686Z,-12.76
2024-02-13T16:04:30.508Z,-12.92
2024-02-13T16:06:59.824Z,-12.68
2024-02-13T16:09:28.768Z,-12.66
2024-02-13T16:11:57.896Z,-12.58
2024-02-13T16:14:27.253Z,-12.51
2024-02-13T16:16:58.729Z,-12.41
2024-02-13T16:19:31.581Z,-12.42
2024-02-13T16:22:00.993Z,-12.31
2024-02-13T16:24:29.907Z,-12.27
2024-02-13T16:26:58.824Z,-12.22
2024-02-13T16:29:29.339Z,-12.12
2024-02-13T16:31:58.125Z,-12.13
2024-02-13T16:34:27.417Z,-12.11
2024-02-13T16:36:56.834Z,-12.05
2024-02-13T16:39:26.272Z,-12.12
2024-02-13T16:41:55.910Z,-12.05
2024-02-13T16:44:25.023Z,-12.02
2024-02-13T16:46:53.962Z,-11.98
2024-02-13T16:49:24.298Z,-11.98
2024-02-13T16:51:53.068Z,-11.95
2024-02-13T16:54:21.886Z,-11.95
2024-02-13T16:56:50.909Z,-11.92
2024-02-13T16:59:21.404Z,-12.07
2024-02-13T17:01:50.451Z,-11.94
2024-02-13T17:04:19.220Z,-11.88
2024-02-13T17:06:48.578Z,-11.90
2024-02-13T17:09:17.285Z,-11.89
2024-02-13T17:11:46.079Z,-11.87
2024-02-13T17:14:15.031Z,-11.87
2024-02-13T17:16:45.214Z,-11.91
2024-02-13T17:19:16.616Z,-11.84
2024-02-13T17:21:45.609Z,-11.86
2024-02-13T17:24:16.281Z,-11.83
2024-02-13T17:26:46.192Z,-11.84
2024-02-13T17:29:14.938Z,-11.90
2024-02-13T17:31:47.299Z,-11.86
2024-02-13T17:34:16.273Z,-11.77
2024-02-13T17:36:46.335Z,-11.80
2024-02-13T17:39:15.747Z,-11.73
2024-02-13T17:41:44.811Z,-11.72
2024-02-13T17:44:13.744Z,-11.68
2024-02-13T17:46:42.775Z,-11.68
2024-02-13T17:49:11.731Z,-11.67
2024-02-13T17:51:40.526Z,-11.63
2024-02-13T17:54:10.513Z,-11.62
2024-02-13T17:56:40.752Z,-11.62
2024-02-13T17:59:09.583Z,-11.53
2024-02-13T18:01:38.542Z,-11.54
2024-02-13T18:04:08.635Z,-11.52
2024-02-13T18:06:37.704Z,-11.56
2024-02-13T18:09:06.760Z,-11.52
2024-02-13T18:11:35.644Z,-11.57
2024-02-13T18:14:05.771Z,-11.48
2024-02-13T18:16:35.883Z,-11.52
2024-02-13T18:19:09.024Z,-11.57
2024-02-13T18:21:40.928Z,-11.56
2024-02-13T18:24:11.795Z,-11.54
2024-02-13T18:26:40.723Z,-11.47
2024-02-13T18:29:09.665Z,-11.49
2024-02-13T18:31:40.283Z,-11.49
2024-02-13T18:34:09.834Z,-11.50
2024-02-13T18:36:45.865Z,-11.43
2024-02-13T18:39:18.023Z,-11.42
2024-02-13T18:41:47.039Z,-11.37
2024-02-13T18:44:16.232Z,-11.38
2024-02-13T18:46:47.346Z,-11.41
2024-02-13T18:49:19.538Z,-11.37
2024-02-13T18:51:49.497Z,-11.35
2024-02-13T18:54:18.103Z,-11.37
2024-02-13T18:56:46.949Z,-11.30
2024-02-13T18:59:16.435Z,-11.21
2024-02-13T19:01:47.353Z,-11.19
2024-02-13T19:04:17.750Z,-11.20
2024-02-13T19:06:47.953Z,-11.10
2024-02-13T19:09:16.565Z,-11.15
2024-02-13T19:11:45.445Z,-11.10
2024-02-13T19:14:14.471Z,-11.10
2024-02-13T19:16:45.986Z,-11.19
2024-02-13T19:19:15.318Z,-11.00
2024-02-13T19:21:45.061Z,-11.00
2024-02-13T19:24:14.019Z,-11.13
2024-02-13T19:26:43.498Z,-10.99
2024-02-13T19:29:12.346Z,-10.97
2024-02-13T19:31:43.287Z,-10.91
2024-02-13T19:34:12.377Z,-10.91
2024-02-13T19:36:41.809Z,-10.85
2024-02-13T19:39:10.705Z,-10.86
2024-02-13T19:41:39.404Z,-10.79
2024-02-13T19:44:08.345Z,-10.75
2024-02-13T19:46:37.117Z,-10.73
2024-02-13T19:49:06.622Z,-10.74
2024-02-13T19:51:35.548Z,-10.75
2024-02-13T19:54:04.575Z,-10.71
2024-02-13T19:56:34.808Z,-10.68
2024-02-13T19:59:03.829Z,-10.60
2024-02-13T20:01:34.508Z,-10.65
2024-02-13T20:04:07.214Z,-10.57
2024-02-13T20:06:37.816Z,-10.58
2024-02-13T20:09:10.172Z,-10.62
2024-02-13T20:11:39.357Z,-10.64
2024-02-13T20:14:09.809Z,-10.56
2024-02-13T20:16:39.043Z,-10.51
2024-02-13T20:19:07.974Z,-10.49
2024-02-13T20:21:37.874Z,-10.45
2024-02-13T20:24:06.925Z,-10.38
2024-02-13T20:26:35.866Z,-10.40
2024-02-13T20:29:04.589Z,-10.39
2024-02-13T20:31:36.453Z,-10.36
2024-02-13T20:34:05.522Z,-10.30
2024-02-13T20:36:34.496Z,-10.33
2024-02-13T20:39:11.740Z,-10.44
2024-02-13T20:41:44.346Z,-10.20
2024-02-13T20:44:14.481Z,-10.18
2024-02-13T20:46:55.777Z,-10.26
2024-02-13T20:49:26.194Z,-10.18
2024-02-13T20:51:55.103Z,-10.28
2024-02-13T20:54:24.409Z,-10.25
2024-02-13T20:57:05.989Z,-10.05
2024-02-13T20:59:35.710Z,-9.98
2024-02-13T21:02:04.640Z,-9.98
2024-02-13T21:04:33.551Z,-9.94
2024-02-13T21:07:03.779Z,-9.89
2024-02-13T21:09:32.589Z,-10.06
2024-02-13T21:12:01.456Z,-9.85
2024-02-13T21:14:32.428Z,-9.83
2024-02-13T21:17:01.884Z,-9.79
2024-02-13T21:19:30.790Z,-9.78
2024-02-13T21:22:18.084Z,-9.78
2024-02-13T21:24:47.779Z,-9.67
2024-02-13T21:27:16.820Z,-9.62
2024-02-13T21:29:47.331Z,-9.58
2024-02-13T21:32:16.153Z,-9.62
2024-02-13T21:34:45.678Z,-9.51
2024-02-13T21:37:14.459Z,-9.53
2024-02-13T21:39:43.258Z,-9.45
2024-02-13T21:42:12.290Z,-9.46
2024-02-13T21:44:42.001Z,-9.44
2024-02-13T21:47:11.944Z,-9.40
2024-02-13T21:49:40.724Z,-9.37
2024-02-13T21:52:11.751Z,-9.29
2024-02-13T21:54:41.220Z,-9.30
2024-02-13T21:57:10.302Z,-9.21
2024-02-13T21:59:39.170Z,-9.15
2024-02-13T22:02:07.883Z,-9.13
2024-02-13T22:04:39.611Z,-9.11
2024-02-13T22:07:08.521Z,-9.06
2024-02-13T22:09:37.529Z,-9.00
2024-02-13T22:12:06.592Z,-8.94
2024-02-13T22:14:35.648Z,-8.85
2024-02-13T22:17:04.672Z,-8.82
2024-02-13T22:19:36.868Z,-8.74
2024-02-13T22:22:06.316Z,-8.72
2024-02-13T22:24:35.400Z,-8.67
2024-02-13T22:27:04.477Z,-8.56
2024-02-13T22:29:33.171Z,-8.56
2024-02-13T22:32:02.360Z,-8.47
2024-02-13T22:34:31.292Z,-8.43
2024-02-13T22:37:02.807Z,-8.36
2024-02-13T22:39:31.946Z,-8.36
2024-02-13T22:42:02.808Z,-8.34
2024-02-13T22:44:32.281Z,-8.26
2024-02-13T22:47:01.172Z,-8.21
2024-02-13T22:49:30.107Z,-8.20
2024-02-13T22:51:59.183Z,-8.11
2024-02-13T22:54:27.928Z,-8.13
2024-02-13T22:56:58.375Z,-8.08
2024-02-13T22:59:27.768Z,-8.04
2024-02-13T23:01:56.731Z,-8.01
2024-02-13T23:04:25.530Z,-7.97
2024-02-13T23:07:06.594Z,-7.96
2024-02-13T23:09:35.942Z,-7.91
2024-02-13T23:12:06.827Z,-7.87
2024-02-13T23:14:38.191Z,-7.89
2024-02-13T23:17:08.908Z,-8.24
2024-02-13T23:19:40.670Z,-7.97
2024-02-13T23:22:11.167Z,-7.78
2024-02-13T23:24:52.208Z,-7.79
2024-02-13T23:27:21.292Z,-7.92
2024-02-13T23:29:50.662Z,-7.72
2024-02-13T23:32:19.877Z,-7.73
2024-02-13T23:34:48.931Z,-7.71
2024-02-13T23:37:17.878Z,-7.70
2024-02-13T23:39:49.407Z,-7.64
2024-02-13T23:42:18.600Z,-7.68
2024-02-13T23:44:47.724Z,-7.64
2024-02-13T23:47:18.795Z,-7.63
2024-02-13T23:49:48.911Z,-7.66
2024-02-13T23:52:17.820Z,-7.62
2024-02-13T23:54:47.046Z,-7.59
2024-02-13T23:57:17.519Z,-7.55
2024-02-13T23:59:46.875Z,-7.56
